sensor_id;sensor_type;location;lat;lon;timestamp;P1;durP1;ratioP1;P2;durP2;ratioP2
63499;SDS011;49654;51.142;14.924;2023-04-24T00:00:21;5.95;;;4.47;;
63499;SDS011;49654;51.142;14.924;2023-04-24T00:02:48;6.68;;;4.65;;
63499;SDS011;49654;51.142;14.924;2023-04-24T00:05:16;6.13;;;4.47;;
63499;SDS011;49654;51.142;14.924;2023-04-24T00:07:43;6.90;;;5.03;;
63499;SDS011;49654;51.142;14.924;2023-04-24T00:10:11;6.07;;;4.65;;
63499;SDS011;49654;51.142;14.924;2023-04-24T00:12:40;5.57;;;4.95;;
63499;SDS011;49654;51.142;14.924;2023-04-24T00:15:07;6.45;;;4.57;;
63499;SDS011;49654;51.142;14.924;2023-04-24T00:17:35;5.60;;;5.00;;
63499;SDS011;49654;51.142;14.924;2023-04-24T00:20:02;10.48;;;5.30;;
63499;SDS011;49654;51.142;14.924;2023-04-24T00:22:31;5.68;;;5.10;;
63499;SDS011;49654;51.142;14.924;2023-04-24T00:24:58;5.18;;;4.25;;
63499;SDS011;49654;51.142;14.924;2023-04-24T00:27:25;6.50;;;4.72;;
63499;SDS011;49654;51.142;14.924;2023-04-24T00:29:53;7.32;;;5.10;;
63499;SDS011;49654;51.142;14.924;2023-04-24T00:32:20;7.18;;;5.88;;
63499;SDS011;49654;51.142;14.924;2023-04-24T00:34:47;6.90;;;5.70;;
63499;SDS011;49654;51.142;14.924;2023-04-24T00:37:14;7.43;;;5.68;;
63499;SDS011;49654;51.142;14.924;2023-04-24T00:39:41;7.97;;;5.20;;
63499;SDS011;49654;51.142;14.924;2023-04-24T00:42:08;7.35;;;4.70;;
63499;SDS011;49654;51.142;14.924;2023-04-24T00:44:35;6.32;;;5.10;;
63499;SDS011;49654;51.142;14.924;2023-04-24T00:47:03;6.75;;;5.22;;
63499;SDS011;49654;51.142;14.924;2023-04-24T00:49:30;5.45;;;4.40;;
63499;SDS011;49654;51.142;14.924;2023-04-24T00:51:58;5.88;;;4.88;;
63499;SDS011;49654;51.142;14.924;2023-04-24T00:54:25;6.93;;;5.43;;
63499;SDS011;49654;51.142;14.924;2023-04-24T00:56:52;9.63;;;6.57;;
63499;SDS011;49654;51.142;14.924;2023-04-24T00:59:19;8.23;;;6.00;;
63499;SDS011;49654;51.142;14.924;2023-04-24T01:01:46;7.85;;;5.30;;
63499;SDS011;49654;51.142;14.924;2023-04-24T01:04:15;7.50;;;5.47;;
63499;SDS011;49654;51.142;14.924;2023-04-24T01:06:44;6.68;;;5.25;;
63499;SDS011;49654;51.142;14.924;2023-04-24T01:09:12;7.40;;;5.07;;
63499;SDS011;49654;51.142;14.924;2023-04-24T01:11:40;7.80;;;5.15;;
63499;SDS011;49654;51.142;14.924;2023-04-24T01:14:08;6.75;;;4.90;;
63499;SDS011;49654;51.142;14.924;2023-04-24T01:16:35;7.50;;;5.65;;
63499;SDS011;49654;51.142;14.924;2023-04-24T01:19:03;6.13;;;5.53;;
63499;SDS011;49654;51.142;14.924;2023-04-24T01:21:32;7.63;;;5.65;;
63499;SDS011;49654;51.142;14.924;2023-04-24T01:24:04;7.22;;;5.40;;
63499;SDS011;49654;51.142;14.924;2023-04-24T01:26:32;7.63;;;5.28;;
63499;SDS011;49654;51.142;14.924;2023-04-24T01:28:59;6.13;;;5.05;;
63499;SDS011;49654;51.142;14.924;2023-04-24T01:31:26;6.70;;;5.00;;
63499;SDS011;49654;51.142;14.924;2023-04-24T01:33:55;6.28;;;5.32;;
63499;SDS011;49654;51.142;14.924;2023-04-24T01:36:22;7.63;;;5.65;;
63499;SDS011;49654;51.142;14.924;2023-04-24T01:38:51;6.93;;;5.18;;
63499;SDS011;49654;51.142;14.924;2023-04-24T01:41:19;8.02;;;5.55;;
63499;SDS011;49654;51.142;14.924;2023-04-24T01:43:46;8.40;;;5.63;;
63499;SDS011;49654;51.142;14.924;2023-04-24T01:46:15;6.88;;;5.38;;
63499;SDS011;49654;51.142;14.924;2023-04-24T01:48:42;6.38;;;5.35;;
63499;SDS011;49654;51.142;14.924;2023-04-24T01:51:11;6.85;;;5.45;;
63499;SDS011;49654;51.142;14.924;2023-04-24T01:53:38;7.63;;;5.90;;
63499;SDS011;49654;51.142;14.924;2023-04-24T01:56:05;8.13;;;5.47;;
63499;SDS011;49654;51.142;14.924;2023-04-24T01:58:34;7.22;;;6.03;;
63499;SDS011;49654;51.142;14.924;2023-04-24T02:01:01;6.47;;;5.88;;
63499;SDS011;49654;51.142;14.924;2023-04-24T02:03:29;7.45;;;6.13;;
63499;SDS011;49654;51.142;14.924;2023-04-24T02:05:56;8.48;;;5.55;;
63499;SDS011;49654;51.142;14.924;2023-04-24T02:08:23;7.22;;;5.95;;
63499;SDS011;49654;51.142;14.924;2023-04-24T02:10:50;8.07;;;6.15;;
63499;SDS011;49654;51.142;14.924;2023-04-24T02:13:17;7.75;;;5.88;;
63499;SDS011;49654;51.142;14.924;2023-04-24T02:15:45;6.85;;;6.15;;
63499;SDS011;49654;51.142;14.924;2023-04-24T02:18:12;8.05;;;6.05;;
63499;SDS011;49654;51.142;14.924;2023-04-24T02:20:39;8.55;;;6.28;;
63499;SDS011;49654;51.142;14.924;2023-04-24T02:23:06;6.53;;;5.57;;
63499;SDS011;49654;51.142;14.924;2023-04-24T02:25:33;7.65;;;6.40;;
63499;SDS011;49654;51.142;14.924;2023-04-24T02:28:00;8.23;;;5.60;;
63499;SDS011;49654;51.142;14.924;2023-04-24T02:30:27;6.28;;;5.55;;
63499;SDS011;49654;51.142;14.924;2023-04-24T02:32:56;8.82;;;6.43;;
63499;SDS011;49654;51.142;14.924;2023-04-24T02:35:23;7.85;;;6.63;;
63499;SDS011;49654;51.142;14.924;2023-04-24T02:37:50;10.40;;;6.00;;
63499;SDS011;49654;51.142;14.924;2023-04-24T02:40:17;9.13;;;6.50;;
63499;SDS011;49654;51.142;14.924;2023-04-24T02:42:44;9.23;;;6.35;;
63499;SDS011;49654;51.142;14.924;2023-04-24T02:45:11;9.30;;;6.10;;
63499;SDS011;49654;51.142;14.924;2023-04-24T02:47:38;7.28;;;5.88;;
63499;SDS011;49654;51.142;14.924;2023-04-24T02:50:08;7.43;;;6.13;;
63499;SDS011;49654;51.142;14.924;2023-04-24T02:52:35;9.02;;;6.30;;
63499;SDS011;49654;51.142;14.924;2023-04-24T02:55:02;7.22;;;6.18;;
63499;SDS011;49654;51.142;14.924;2023-04-24T02:57:30;7.85;;;6.30;;
63499;SDS011;49654;51.142;14.924;2023-04-24T02:59:57;7.78;;;5.82;;
63499;SDS011;49654;51.142;14.924;2023-04-24T03:02:24;6.93;;;6.22;;
63499;SDS011;49654;51.142;14.924;2023-04-24T03:04:51;7.93;;;6.70;;
63499;SDS011;49654;51.142;14.924;2023-04-24T03:07:20;8.15;;;6.35;;
63499;SDS011;49654;51.142;14.924;2023-04-24T03:09:47;7.75;;;6.68;;
63499;SDS011;49654;51.142;14.924;2023-04-24T03:12:14;9.68;;;7.30;;
63499;SDS011;49654;51.142;14.924;2023-04-24T03:14:43;9.93;;;7.80;;
63499;SDS011;49654;51.142;14.924;2023-04-24T03:17:10;11.35;;;8.77;;
63499;SDS011;49654;51.142;14.924;2023-04-24T03:19:37;10.77;;;7.90;;
63499;SDS011;49654;51.142;14.924;2023-04-24T03:22:04;11.05;;;8.65;;
63499;SDS011;49654;51.142;14.924;2023-04-24T03:24:33;10.65;;;7.78;;
63499;SDS011;49654;51.142;14.924;2023-04-24T03:27:00;9.65;;;8.60;;
63499;SDS011;49654;51.142;14.924;2023-04-24T03:29:27;8.32;;;7.20;;
63499;SDS011;49654;51.142;14.924;2023-04-24T03:31:54;28.10;;;8.40;;
63499;SDS011;49654;51.142;14.924;2023-04-24T03:34:21;9.60;;;7.13;;
63499;SDS011;49654;51.142;14.924;2023-04-24T03:36:48;10.50;;;7.28;;
63499;SDS011;49654;51.142;14.924;2023-04-24T03:39:15;8.25;;;7.30;;
63499;SDS011;49654;51.142;14.924;2023-04-24T03:41:44;8.23;;;7.32;;
63499;SDS011;49654;51.142;14.924;2023-04-24T03:44:11;8.65;;;7.75;;
63499;SDS011;49654;51.142;14.924;2023-04-24T03:46:38;8.35;;;7.38;;
63499;SDS011;49654;51.142;14.924;2023-04-24T03:49:05;9.27;;;7.03;;
63499;SDS011;49654;51.142;14.924;2023-04-24T03:51:32;9.52;;;7.28;;
63499;SDS011;49654;51.142;14.924;2023-04-24T03:54:00;9.35;;;7.18;;
63499;SDS011;49654;51.142;14.924;2023-04-24T03:56:27;7.85;;;7.00;;
63499;SDS011;49654;51.142;14.924;2023-04-24T03:58:55;8.48;;;6.47;;
63499;SDS011;49654;51.142;14.924;2023-04-24T04:01:22;7.72;;;6.93;;
63499;SDS011;49654;51.142;14.924;2023-04-24T04:03:50;8.43;;;7.10;;
63499;SDS011;49654;51.142;14.924;2023-04-24T04:06:17;8.07;;;7.28;;
63499;SDS011;49654;51.142;14.924;2023-04-24T04:08:44;8.68;;;6.93;;
63499;SDS011;49654;51.142;14.924;2023-04-24T04:11:11;8.95;;;7.22;;
63499;SDS011;49654;51.142;14.924;2023-04-24T04:13:39;8.52;;;7.60;;
63499;SDS011;49654;51.142;14.924;2023-04-24T04:16:08;11.07;;;7.30;;
63499;SDS011;49654;51.142;14.924;2023-04-24T04:18:35;12.40;;;7.78;;
63499;SDS011;49654;51.142;14.924;2023-04-24T04:21:03;9.43;;;8.35;;
63499;SDS011;49654;51.142;14.924;2023-04-24T04:23:30;9.93;;;8.15;;
63499;SDS011;49654;51.142;14.924;2023-04-24T04:25:57;10.52;;;7.53;;
63499;SDS011;49654;51.142;14.924;2023-04-24T04:28:24;8.68;;;7.38;;
63499;SDS011;49654;51.142;14.924;2023-04-24T04:30:52;8.73;;;7.80;;
63499;SDS011;49654;51.142;14.924;2023-04-24T04:33:20;8.75;;;7.85;;
63499;SDS011;49654;51.142;14.924;2023-04-24T04:35:48;9.30;;;7.70;;
63499;SDS011;49654;51.142;14.924;2023-04-24T04:38:15;10.02;;;8.20;;
63499;SDS011;49654;51.142;14.924;2023-04-24T04:40:42;8.82;;;7.93;;
63499;SDS011;49654;51.142;14.924;2023-04-24T04:43:09;11.07;;;8.50;;
63499;SDS011;49654;51.142;14.924;2023-04-24T04:45:38;9.85;;;8.25;;
63499;SDS011;49654;51.142;14.924;2023-04-24T04:48:06;10.80;;;7.85;;
63499;SDS011;49654;51.142;14.924;2023-04-24T04:50:36;11.50;;;8.60;;
63499;SDS011;49654;51.142;14.924;2023-04-24T04:53:03;10.75;;;8.15;;
63499;SDS011;49654;51.142;14.924;2023-04-24T04:55:30;10.30;;;8.07;;
63499;SDS011;49654;51.142;14.924;2023-04-24T04:57:57;10.20;;;8.25;;
63499;SDS011;49654;51.142;14.924;2023-04-24T05:00:25;10.88;;;8.77;;
63499;SDS011;49654;51.142;14.924;2023-04-24T05:02:54;12.95;;;8.70;;
63499;SDS011;49654;51.142;14.924;2023-04-24T05:05:21;12.38;;;9.43;;
63499;SDS011;49654;51.142;14.924;2023-04-24T05:07:49;10.15;;;9.15;;
63499;SDS011;49654;51.142;14.924;2023-04-24T05:10:16;10.90;;;8.20;;
63499;SDS011;49654;51.142;14.924;2023-04-24T05:12:44;10.55;;;8.27;;
63499;SDS011;49654;51.142;14.924;2023-04-24T05:15:11;10.65;;;8.88;;
63499;SDS011;49654;51.142;14.924;2023-04-24T05:17:38;9.63;;;8.63;;
63499;SDS011;49654;51.142;14.924;2023-04-24T05:20:06;10.82;;;8.50;;
63499;SDS011;49654;51.142;14.924;2023-04-24T05:22:34;9.65;;;8.00;;
63499;SDS011;49654;51.142;14.924;2023-04-24T05:25:03;10.50;;;8.15;;
63499;SDS011;49654;51.142;14.924;2023-04-24T05:27:33;10.75;;;8.23;;
63499;SDS011;49654;51.142;14.924;2023-04-24T05:30:00;12.85;;;8.40;;
63499;SDS011;49654;51.142;14.924;2023-04-24T05:32:27;10.40;;;9.35;;
63499;SDS011;49654;51.142;14.924;2023-04-24T05:34:54;10.30;;;9.25;;
63499;SDS011;49654;51.142;14.924;2023-04-24T05:37:21;11.57;;;9.93;;
63499;SDS011;49654;51.142;14.924;2023-04-24T05:39:48;10.48;;;9.40;;
63499;SDS011;49654;51.142;14.924;2023-04-24T05:42:16;11.55;;;10.02;;
63499;SDS011;49654;51.142;14.924;2023-04-24T05:44:43;10.20;;;9.20;;
63499;SDS011;49654;51.142;14.924;2023-04-24T05:47:10;11.02;;;9.73;;
63499;SDS011;49654;51.142;14.924;2023-04-24T05:49:37;11.68;;;9.75;;
63499;SDS011;49654;51.142;14.924;2023-04-24T05:52:04;12.45;;;9.93;;
63499;SDS011;49654;51.142;14.924;2023-04-24T05:54:34;14.35;;;9.80;;
63499;SDS011;49654;51.142;14.924;2023-04-24T05:57:01;11.55;;;9.75;;
63499;SDS011;49654;51.142;14.924;2023-04-24T05:59:35;10.57;;;8.63;;
63499;SDS011;49654;51.142;14.924;2023-04-24T06:02:03;10.93;;;9.82;;
63499;SDS011;49654;51.142;14.924;2023-04-24T06:04:31;11.55;;;9.10;;
63499;SDS011;49654;51.142;14.924;2023-04-24T06:06:58;11.43;;;9.27;;
63499;SDS011;49654;51.142;14.924;2023-04-24T06:09:25;10.15;;;8.95;;
63499;SDS011;49654;51.142;14.924;2023-04-24T06:11:52;16.45;;;8.95;;
63499;SDS011;49654;51.142;14.924;2023-04-24T06:14:20;10.30;;;9.00;;
63499;SDS011;49654;51.142;14.924;2023-04-24T06:16:48;9.77;;;8.77;;
63499;SDS011;49654;51.142;14.924;2023-04-24T06:19:15;9.00;;;8.13;;
63499;SDS011;49654;51.142;14.924;2023-04-24T06:21:42;10.10;;;8.73;;
63499;SDS011;49654;51.142;14.924;2023-04-24T06:24:09;11.10;;;9.13;;
63499;SDS011;49654;51.142;14.924;2023-04-24T06:26:36;9.82;;;8.82;;
63499;SDS011;49654;51.142;14.924;2023-04-24T06:29:03;11.63;;;8.75;;
63499;SDS011;49654;51.142;14.924;2023-04-24T06:31:30;9.68;;;8.68;;
63499;SDS011;49654;51.142;14.924;2023-04-24T06:34:03;12.07;;;9.05;;
63499;SDS011;49654;51.142;14.924;2023-04-24T06:36:31;10.07;;;9.07;;
63499;SDS011;49654;51.142;14.924;2023-04-24T06:39:00;10.65;;;9.27;;
63499;SDS011;49654;51.142;14.924;2023-04-24T06:41:27;10.18;;;9.13;;
63499;SDS011;49654;51.142;14.924;2023-04-24T06:43:54;15.82;;;10.20;;
63499;SDS011;49654;51.142;14.924;2023-04-24T06:46:22;10.30;;;9.20;;
63499;SDS011;49654;51.142;14.924;2023-04-24T06:48:51;10.80;;;9.50;;
63499;SDS011;49654;51.142;14.924;2023-04-24T06:51:23;10.23;;;9.15;;
63499;SDS011;49654;51.142;14.924;2023-04-24T06:53:50;11.02;;;9.85;;
63499;SDS011;49654;51.142;14.924;2023-04-24T06:56:18;10.43;;;9.30;;
63499;SDS011;49654;51.142;14.924;2023-04-24T06:58:45;9.38;;;8.32;;
63499;SDS011;49654;51.142;14.924;2023-04-24T07:01:12;9.00;;;7.97;;
63499;SDS011;49654;51.142;14.924;2023-04-24T07:03:39;9.25;;;8.15;;
63499;SDS011;49654;51.142;14.924;2023-04-24T07:06:06;11.52;;;8.70;;
63499;SDS011;49654;51.142;14.924;2023-04-24T07:08:34;8.90;;;8.00;;
63499;SDS011;49654;51.142;14.924;2023-04-24T07:11:02;8.52;;;7.30;;
63499;SDS011;49654;51.142;14.924;2023-04-24T07:13:29;8.27;;;7.13;;
63499;SDS011;49654;51.142;14.924;2023-04-24T07:15:56;7.90;;;6.90;;
63499;SDS011;49654;51.142;14.924;2023-04-24T07:18:23;9.38;;;6.20;;
63499;SDS011;49654;51.142;14.924;2023-04-24T07:20:51;8.07;;;6.20;;
63499;SDS011;49654;51.142;14.924;2023-04-24T07:23:18;9.43;;;6.43;;
63499;SDS011;49654;51.142;14.924;2023-04-24T07:25:47;9.00;;;7.75;;
63499;SDS011;49654;51.142;14.924;2023-04-24T07:28:14;8.63;;;7.43;;
63499;SDS011;49654;51.142;14.924;2023-04-24T07:30:41;6.97;;;6.07;;
63499;SDS011;49654;51.142;14.924;2023-04-24T07:33:08;5.20;;;4.70;;
63499;SDS011;49654;51.142;14.924;2023-04-24T07:35:36;6.75;;;5.00;;
63499;SDS011;49654;51.142;14.924;2023-04-24T07:38:03;4.45;;;3.80;;
63499;SDS011;49654;51.142;14.924;2023-04-24T07:40:30;5.25;;;4.10;;
63499;SDS011;49654;51.142;14.924;2023-04-24T07:42:59;4.90;;;4.30;;
63499;SDS011;49654;51.142;14.924;2023-04-24T07:45:26;5.93;;;4.90;;
63499;SDS011;49654;51.142;14.924;2023-04-24T07:47:53;5.90;;;4.80;;
63499;SDS011;49654;51.142;14.924;2023-04-24T07:50:20;9.48;;;6.20;;
63499;SDS011;49654;51.142;14.924;2023-04-24T07:52:48;7.00;;;6.28;;
63499;SDS011;49654;51.142;14.924;2023-04-24T07:55:15;8.75;;;6.72;;
63499;SDS011;49654;51.142;14.924;2023-04-24T07:57:42;8.02;;;6.25;;
63499;SDS011;49654;51.142;14.924;2023-04-24T08:00:10;8.60;;;6.60;;
63499;SDS011;49654;51.142;14.924;2023-04-24T08:02:38;6.90;;;6.20;;
63499;SDS011;49654;51.142;14.924;2023-04-24T08:05:05;8.05;;;6.60;;
63499;SDS011;49654;51.142;14.924;2023-04-24T08:07:33;7.13;;;5.82;;
63499;SDS011;49654;51.142;14.924;2023-04-24T08:10:00;7.25;;;5.47;;
63499;SDS011;49654;51.142;14.924;2023-04-24T08:12:28;7.40;;;5.95;;
63499;SDS011;49654;51.142;14.924;2023-04-24T08:14:55;6.28;;;5.07;;
63499;SDS011;49654;51.142;14.924;2023-04-24T08:17:23;5.80;;;5.05;;
63499;SDS011;49654;51.142;14.924;2023-04-24T08:19:50;6.85;;;5.50;;
63499;SDS011;49654;51.142;14.924;2023-04-24T08:22:18;5.50;;;4.88;;
63499;SDS011;49654;51.142;14.924;2023-04-24T08:24:45;5.97;;;4.57;;
63499;SDS011;49654;51.142;14.924;2023-04-24T08:27:12;4.78;;;4.30;;
63499;SDS011;49654;51.142;14.924;2023-04-24T08:29:39;4.88;;;4.38;;
63499;SDS011;49654;51.142;14.924;2023-04-24T08:32:06;7.40;;;4.60;;
63499;SDS011;49654;51.142;14.924;2023-04-24T08:34:34;6.00;;;4.28;;
63499;SDS011;49654;51.142;14.924;2023-04-24T08:37:01;6.00;;;4.20;;
63499;SDS011;49654;51.142;14.924;2023-04-24T08:39:29;5.70;;;4.25;;
63499;SDS011;49654;51.142;14.924;2023-04-24T08:41:56;6.03;;;4.25;;
63499;SDS011;49654;51.142;14.924;2023-04-24T08:44:22;4.90;;;4.07;;
63499;SDS011;49654;51.142;14.924;2023-04-24T08:46:49;5.55;;;4.13;;
63499;SDS011;49654;51.142;14.924;2023-04-24T08:49:17;5.47;;;3.80;;
63499;SDS011;49654;51.142;14.924;2023-04-24T08:51:46;6.32;;;4.03;;
63499;SDS011;49654;51.142;14.924;2023-04-24T08:54:15;5.00;;;3.90;;
63499;SDS011;49654;51.142;14.924;2023-04-24T08:56:43;6.07;;;4.03;;
63499;SDS011;49654;51.142;14.924;2023-04-24T08:59:11;6.32;;;3.92;;
63499;SDS011;49654;51.142;14.924;2023-04-24T09:01:38;4.70;;;4.10;;
63499;SDS011;49654;51.142;14.924;2023-04-24T09:04:07;5.72;;;4.03;;
63499;SDS011;49654;51.142;14.924;2023-04-24T09:06:36;4.43;;;4.03;;
63499;SDS011;49654;51.142;14.924;2023-04-24T09:09:05;5.65;;;4.03;;
63499;SDS011;49654;51.142;14.924;2023-04-24T09:11:32;5.20;;;4.57;;
63499;SDS011;49654;51.142;14.924;2023-04-24T09:13:59;6.05;;;4.20;;
63499;SDS011;49654;51.142;14.924;2023-04-24T09:16:27;4.60;;;4.18;;
63499;SDS011;49654;51.142;14.924;2023-04-24T09:38:43;5.28;;;4.78;;
63499;SDS011;49654;51.142;14.924;2023-04-24T09:51:18;5.30;;;4.78;;
63499;SDS011;49654;51.142;14.924;2023-04-24T09:54:00;8.43;;;5.03;;
63499;SDS011;49654;51.142;14.924;2023-04-24T09:56:27;7.70;;;5.15;;
63499;SDS011;49654;51.142;14.924;2023-04-24T09:58:54;6.25;;;5.45;;
63499;SDS011;49654;51.142;14.924;2023-04-24T10:01:28;5.85;;;5.25;;
63499;SDS011;49654;51.142;14.924;2023-04-24T10:03:56;5.88;;;5.28;;
63499;SDS011;49654;51.142;14.924;2023-04-24T10:06:31;5.40;;;4.90;;
63499;SDS011;49654;51.142;14.924;2023-04-24T10:08:59;6.35;;;5.15;;
63499;SDS011;49654;51.142;14.924;2023-04-24T10:11:26;5.72;;;4.95;;
63499;SDS011;49654;51.142;14.924;2023-04-24T10:13:53;4.85;;;4.28;;
63499;SDS011;49654;51.142;14.924;2023-04-24T10:16:21;5.60;;;5.10;;
63499;SDS011;49654;51.142;14.924;2023-04-24T10:18:48;5.40;;;4.88;;
63499;SDS011;49654;51.142;14.924;2023-04-24T10:21:16;5.50;;;4.65;;
63499;SDS011;49654;51.142;14.924;2023-04-24T10:23:45;6.03;;;4.80;;
63499;SDS011;49654;51.142;14.924;2023-04-24T10:26:12;5.15;;;4.65;;
63499;SDS011;49654;51.142;14.924;2023-04-24T10:28:43;5.60;;;4.97;;
63499;SDS011;49654;51.142;14.924;2023-04-24T10:31:12;4.85;;;4.45;;
63499;SDS011;49654;51.142;14.924;2023-04-24T10:33:39;5.43;;;5.03;;
63499;SDS011;49654;51.142;14.924;2023-04-24T10:36:07;4.95;;;4.45;;
63499;SDS011;49654;51.142;14.924;2023-04-24T10:38:37;5.38;;;4.70;;
63499;SDS011;49654;51.142;14.924;2023-04-24T10:41:08;6.38;;;4.60;;
63499;SDS011;49654;51.142;14.924;2023-04-24T10:43:41;5.38;;;4.38;;
63499;SDS011;49654;51.142;14.924;2023-04-24T10:46:09;4.75;;;4.35;;
63499;SDS011;49654;51.142;14.924;2023-04-24T10:48:41;4.38;;;3.35;;
63499;SDS011;49654;51.142;14.924;2023-04-24T10:51:10;4.35;;;3.70;;
63499;SDS011;49654;51.142;14.924;2023-04-24T10:53:39;4.38;;;3.67;;
63499;SDS011;49654;51.142;14.924;2023-04-24T10:56:06;3.85;;;3.20;;
63499;SDS011;49654;51.142;14.924;2023-04-24T10:58:36;4.00;;;3.53;;
63499;SDS011;49654;51.142;14.924;2023-04-24T11:01:05;3.60;;;3.30;;
63499;SDS011;49654;51.142;14.924;2023-04-24T11:03:34;3.80;;;3.40;;
63499;SDS011;49654;51.142;14.924;2023-04-24T11:06:02;4.05;;;3.70;;
63499;SDS011;49654;51.142;14.924;2023-04-24T11:08:31;3.80;;;3.50;;
63499;SDS011;49654;51.142;14.924;2023-04-24T11:11:03;4.85;;;3.97;;
63499;SDS011;49654;51.142;14.924;2023-04-24T11:16:33;5.13;;;4.25;;
63499;SDS011;49654;51.142;14.924;2023-04-24T11:19:05;4.82;;;4.18;;
63499;SDS011;49654;51.142;14.924;2023-04-24T11:21:40;4.57;;;4.18;;
63499;SDS011;49654;51.142;14.924;2023-04-24T11:26:54;6.38;;;5.13;;
63499;SDS011;49654;51.142;14.924;2023-04-24T11:29:37;5.85;;;4.38;;
63499;SDS011;49654;51.142;14.924;2023-04-24T11:32:14;5.07;;;4.05;;
63499;SDS011;49654;51.142;14.924;2023-04-24T11:34:48;4.95;;;4.53;;
63499;SDS011;49654;51.142;14.924;2023-04-24T11:37:16;4.57;;;4.18;;
63499;SDS011;49654;51.142;14.924;2023-04-24T11:39:43;4.90;;;4.40;;
63499;SDS011;49654;51.142;14.924;2023-04-24T11:42:10;5.68;;;4.93;;
63499;SDS011;49654;51.142;14.924;2023-04-24T11:44:42;6.07;;;5.47;;
63499;SDS011;49654;51.142;14.924;2023-04-24T11:47:10;6.43;;;3.17;;
63499;SDS011;49654;51.142;14.924;2023-04-24T11:49:37;3.80;;;3.35;;
63499;SDS011;49654;51.142;14.924;2023-04-24T11:52:04;5.05;;;4.03;;
63499;SDS011;49654;51.142;14.924;2023-04-24T11:54:31;4.45;;;4.05;;
63499;SDS011;49654;51.142;14.924;2023-04-24T11:56:58;4.78;;;4.20;;
63499;SDS011;49654;51.142;14.924;2023-04-24T11:59:25;4.82;;;4.43;;
63499;SDS011;49654;51.142;14.924;2023-04-24T12:01:54;5.95;;;5.38;;
63499;SDS011;49654;51.142;14.924;2023-04-24T12:04:20;5.03;;;4.53;;
63499;SDS011;49654;51.142;14.924;2023-04-24T12:06:59;4.25;;;3.92;;
63499;SDS011;49654;51.142;14.924;2023-04-24T12:09:26;4.55;;;4.15;;
63499;SDS011;49654;51.142;14.924;2023-04-24T12:11:53;4.35;;;3.90;;
63499;SDS011;49654;51.142;14.924;2023-04-24T12:14:22;5.28;;;4.25;;
63499;SDS011;49654;51.142;14.924;2023-04-24T12:16:49;3.72;;;3.38;;
63499;SDS011;49654;51.142;14.924;2023-04-24T12:19:20;3.67;;;3.22;;
63499;SDS011;49654;51.142;14.924;2023-04-24T12:21:58;3.10;;;2.70;;
63499;SDS011;49654;51.142;14.924;2023-04-24T12:24:26;2.70;;;2.50;;
63499;SDS011;49654;51.142;14.924;2023-04-24T12:26:52;3.22;;;2.60;;
63499;SDS011;49654;51.142;14.924;2023-04-24T12:29:20;2.20;;;2.00;;
63499;SDS011;49654;51.142;14.924;2023-04-24T12:31:47;3.08;;;2.33;;
63499;SDS011;49654;51.142;14.924;2023-04-24T12:34:18;3.97;;;2.47;;
63499;SDS011;49654;51.142;14.924;2023-04-24T12:36:46;2.35;;;2.13;;
63499;SDS011;49654;51.142;14.924;2023-04-24T12:39:14;2.00;;;1.90;;
63499;SDS011;49654;51.142;14.924;2023-04-24T12:41:49;1.90;;;1.67;;
63499;SDS011;49654;51.142;14.924;2023-04-24T12:44:17;1.95;;;1.58;;
63499;SDS011;49654;51.142;14.924;2023-04-24T12:46:44;2.00;;;1.80;;
63499;SDS011;49654;51.142;14.924;2023-04-24T12:49:11;2.58;;;1.85;;
63499;SDS011;49654;51.142;14.924;2023-04-24T12:51:40;3.33;;;2.28;;
63499;SDS011;49654;51.142;14.924;2023-04-24T12:54:07;2.15;;;1.95;;
63499;SDS011;49654;51.142;14.924;2023-04-24T12:56:34;2.25;;;2.05;;
63499;SDS011;49654;51.142;14.924;2023-04-24T12:59:04;1.52;;;1.42;;
63499;SDS011;49654;51.142;14.924;2023-04-24T13:01:31;2.05;;;1.70;;
63499;SDS011;49654;51.142;14.924;2023-04-24T13:03:58;2.05;;;1.77;;
63499;SDS011;49654;51.142;14.924;2023-04-24T13:06:25;1.75;;;1.40;;
63499;SDS011;49654;51.142;14.924;2023-04-24T13:08:54;1.75;;;1.60;;
63499;SDS011;49654;51.142;14.924;2023-04-24T13:11:23;2.92;;;1.80;;
63499;SDS011;49654;51.142;14.924;2023-04-24T13:13:50;2.58;;;1.50;;
63499;SDS011;49654;51.142;14.924;2023-04-24T13:16:17;2.15;;;1.58;;
63499;SDS011;49654;51.142;14.924;2023-04-24T13:18:44;2.50;;;1.83;;
63499;SDS011;49654;51.142;14.924;2023-04-24T13:21:11;2.45;;;1.58;;
63499;SDS011;49654;51.142;14.924;2023-04-24T13:23:38;2.08;;;1.48;;
63499;SDS011;49654;51.142;14.924;2023-04-24T13:26:06;2.83;;;1.60;;
63499;SDS011;49654;51.142;14.924;2023-04-24T13:28:33;2.00;;;1.58;;
63499;SDS011;49654;51.142;14.924;2023-04-24T13:31:00;1.70;;;1.60;;
63499;SDS011;49654;51.142;14.924;2023-04-24T13:33:27;2.42;;;1.60;;
63499;SDS011;49654;51.142;14.924;2023-04-24T13:35:53;3.22;;;1.77;;
63499;SDS011;49654;51.142;14.924;2023-04-24T13:38:20;1.80;;;1.40;;
63499;SDS011;49654;51.142;14.924;2023-04-24T13:40:48;2.55;;;1.65;;
63499;SDS011;49654;51.142;14.924;2023-04-24T13:43:16;2.65;;;1.80;;
63499;SDS011;49654;51.142;14.924;2023-04-24T13:45:43;3.28;;;2.97;;
63499;SDS011;49654;51.142;14.924;2023-04-24T13:48:10;4.80;;;3.30;;
63499;SDS011;49654;51.142;14.924;2023-04-24T13:50:37;6.38;;;2.80;;
63499;SDS011;49654;51.142;14.924;2023-04-24T13:53:04;4.15;;;3.03;;
63499;SDS011;49654;51.142;14.924;2023-04-24T13:55:31;3.63;;;3.33;;
63499;SDS011;49654;51.142;14.924;2023-04-24T13:57:57;6.97;;;3.88;;
63499;SDS011;49654;51.142;14.924;2023-04-24T14:00:26;4.38;;;3.50;;
63499;SDS011;49654;51.142;14.924;2023-04-24T14:02:53;2.10;;;1.13;;
63499;SDS011;49654;51.142;14.924;2023-04-24T14:05:20;1.67;;;1.48;;
63499;SDS011;49654;51.142;14.924;2023-04-24T14:07:47;1.88;;;1.20;;
63499;SDS011;49654;51.142;14.924;2023-04-24T14:10:14;4.40;;;3.05;;
63499;SDS011;49654;51.142;14.924;2023-04-24T14:12:41;3.90;;;2.97;;
63499;SDS011;49654;51.142;14.924;2023-04-24T14:15:08;3.63;;;1.60;;
63499;SDS011;49654;51.142;14.924;2023-04-24T14:17:37;1.65;;;1.55;;
63499;SDS011;49654;51.142;14.924;2023-04-24T14:20:04;2.20;;;1.63;;
63499;SDS011;49654;51.142;14.924;2023-04-24T14:22:32;2.50;;;1.90;;
63499;SDS011;49654;51.142;14.924;2023-04-24T14:24:59;2.15;;;1.95;;
63499;SDS011;49654;51.142;14.924;2023-04-24T14:27:26;4.00;;;1.90;;
63499;SDS011;49654;51.142;14.924;2023-04-24T14:29:53;2.72;;;1.60;;
63499;SDS011;49654;51.142;14.924;2023-04-24T14:32:20;2.05;;;1.70;;
63499;SDS011;49654;51.142;14.924;2023-04-24T14:34:48;3.38;;;1.90;;
63499;SDS011;49654;51.142;14.924;2023-04-24T14:37:15;2.50;;;1.50;;
63499;SDS011;49654;51.142;14.924;2023-04-24T14:39:42;1.98;;;1.55;;
63499;SDS011;49654;51.142;14.924;2023-04-24T14:42:09;2.30;;;1.50;;
63499;SDS011;49654;51.142;14.924;2023-04-24T14:44:36;2.30;;;1.70;;
63499;SDS011;49654;51.142;14.924;2023-04-24T14:47:03;1.77;;;1.60;;
63499;SDS011;49654;51.142;14.924;2023-04-24T14:49:29;2.05;;;1.70;;
63499;SDS011;49654;51.142;14.924;2023-04-24T14:51:58;2.95;;;1.70;;
63499;SDS011;49654;51.142;14.924;2023-04-24T14:54:25;2.10;;;1.50;;
63499;SDS011;49654;51.142;14.924;2023-04-24T14:56:52;2.90;;;1.77;;
63499;SDS011;49654;51.142;14.924;2023-04-24T14:59:22;1.83;;;1.60;;
63499;SDS011;49654;51.142;14.924;2023-04-24T15:01:49;1.85;;;1.50;;
63499;SDS011;49654;51.142;14.924;2023-04-24T15:04:17;1.73;;;1.48;;
63499;SDS011;49654;51.142;14.924;2023-04-24T15:06:44;1.60;;;1.50;;
63499;SDS011;49654;51.142;14.924;2023-04-24T15:09:12;2.42;;;1.92;;
63499;SDS011;49654;51.142;14.924;2023-04-24T15:11:39;2.08;;;1.88;;